Bookmark and Share
Track history (hours):
 

Pileas I

Last reported at 2014-Apr-16 07:33 UTC. Time now 2014-Apr-16 07:36 UTC.
Position N 34°39' E 033°00'.

Length 36 m; draft 3.6 m.

Type: Tug. MMSI: 209668000.

NotesDate/timePositionNaut miles runAvg speedWind from/ knotsBaromVisibWave heightAir tempDewpointWater temp
2014-Apr-16 07:33N 34°39' E 033°00'0 0.0
2014-Apr-16 06:33N 34°39' E 033°00'0 0.0
2014-Apr-16 05:33N 34°39' E 033°00'0 0.0
2014-Apr-16 04:33N 34°39' E 033°00'0 0.0
2014-Apr-16 03:33N 34°39' E 033°00'0 0.0
2014-Apr-16 02:33N 34°39' E 033°00'0 0.0
2014-Apr-16 01:33N 34°39' E 033°00'0 0.0
2014-Apr-16 00:33N 34°39' E 033°00'0 0.0
2014-Apr-15 23:33N 34°39' E 033°00'0 0.0
2014-Apr-15 22:33N 34°39' E 033°00'0 0.0
2014-Apr-15 21:33N 34°39' E 033°00'0 0.0
2014-Apr-15 20:33N 34°39' E 033°00'0 0.0
2014-Apr-15 19:33N 34°39' E 033°00'0 0.0
2014-Apr-15 18:33N 34°39' E 033°00'0 0.0
2014-Apr-15 17:33N 34°39' E 033°00'0 0.0
2014-Apr-15 16:34N 34°39' E 033°00'1 0.6
2014-Apr-15 15:34N 34°39' E 033°01'3 3.2
2014-Apr-15 14:34N 34°39' E 033°05'5 2.3
2014-Apr-15 12:34N 34°39' E 033°11'6 6.2
2014-Apr-15 11:34N 34°39' E 033°18'6 6.2
2014-Apr-15 10:34N 34°38' E 033°26'6 6.0
2014-Apr-15 09:33N 34°38' E 033°33'8 0.8
2014-Apr-14 23:34N 34°39' E 033°23'8 7.6
2014-Apr-14 22:34N 34°39' E 033°14'7 7.2
2014-Apr-14 21:34N 34°39' E 033°05'4 3.6
2014-Apr-14 20:34N 34°39' E 033°00'0 0.0
2014-Apr-14 19:34N 34°39' E 033°00'0 0.0
2014-Apr-14 18:33N 34°39' E 033°00'0 0.0
2014-Apr-14 17:32N 34°39' E 033°00'0 0.0
2014-Apr-14 16:34N 34°39' E 033°00'0 0.0
2014-Apr-14 15:34N 34°39' E 033°00'0 0.0
2014-Apr-14 14:34N 34°39' E 033°00'0 0.0
2014-Apr-14 13:34N 34°39' E 033°00'0 0.0
2014-Apr-14 11:33N 34°39' E 033°00'0 0.0
2014-Apr-14 10:32N 34°39' E 033°00'0 0.0
2014-Apr-14 09:33N 34°39' E 033°00'0 0.0
2014-Apr-14 08:33N 34°39' E 033°00'0 0.0
2014-Apr-14 07:33N 34°39' E 033°00'1 0.9
2014-Apr-14 06:33N 34°39' E 033°02'2 1.8
2014-Apr-14 05:34N 34°40' E 033°03'3 0.4
2014-Apr-13 22:33N 34°39' E 033°00'0 0.0
2014-Apr-13 21:33N 34°39' E 033°00'0 0.0
2014-Apr-13 20:33N 34°39' E 033°00'0 0.0
2014-Apr-13 19:33N 34°39' E 033°00'0 0.0
2014-Apr-13 18:34N 34°39' E 033°00'0 0.0
2014-Apr-13 17:33N 34°39' E 033°00'0 0.0
2014-Apr-13 16:33N 34°39' E 033°00'0 0.0
2014-Apr-13 15:33N 34°39' E 033°00'0 0.0
2014-Apr-13 14:33N 34°39' E 033°00'0 0.0
2014-Apr-13 13:33N 34°39' E 033°00'0 0.0
2014-Apr-13 12:33N 34°39' E 033°00'0 0.0
2014-Apr-13 11:33N 34°39' E 033°00'0 0.0
2014-Apr-13 10:34N 34°39' E 033°00'0 0.0
2014-Apr-13 09:33N 34°39' E 033°00'0 0.0
2014-Apr-13 08:33N 34°39' E 033°00'0 0.0
2014-Apr-13 07:33N 34°39' E 033°00'0 0.0
2014-Apr-13 06:33N 34°39' E 033°00'0 0.0
2014-Apr-13 05:33N 34°39' E 033°00'0 0.0
2014-Apr-13 04:33N 34°39' E 033°00'0 0.0
2014-Apr-13 03:33N 34°39' E 033°00'0 0.0
2014-Apr-13 02:33N 34°39' E 033°00'0 0.0
2014-Apr-13 01:33N 34°39' E 033°00'0 0.0
2014-Apr-13 00:33N 34°39' E 033°00'0 0.0
2014-Apr-12 23:33N 34°39' E 033°00'0 0.0
2014-Apr-12 22:33N 34°39' E 033°00'0 0.0
2014-Apr-12 21:33N 34°39' E 033°00'0 0.0
2014-Apr-12 20:33N 34°39' E 033°00'0 0.0
2014-Apr-12 19:33N 34°39' E 033°00'0 0.0
2014-Apr-12 18:33N 34°39' E 033°00'0 0.0
2014-Apr-12 17:33N 34°39' E 033°00'0 0.0
2014-Apr-12 16:33N 34°39' E 033°00'0 0.0
2014-Apr-12 15:34N 34°39' E 033°00'0 0.0
2014-Apr-12 14:34N 34°39' E 033°00'0 0.0
2014-Apr-12 13:34N 34°39' E 033°00'0 0.0
2014-Apr-12 12:34N 34°39' E 033°00'0 0.0
2014-Apr-12 11:34N 34°39' E 033°00'0 0.0
2014-Apr-12 10:33N 34°39' E 033°00'0 0.0
2014-Apr-12 09:34N 34°39' E 033°00'0 0.0
2014-Apr-12 08:34N 34°39' E 033°00'0 0.0
2014-Apr-12 07:33N 34°39' E 033°00'0 0.0
2014-Apr-12 06:34N 34°39' E 033°00'0 0.0
2014-Apr-12 05:33N 34°39' E 033°00'0 0.0
2014-Apr-12 04:33N 34°39' E 033°00'0 0.0
2014-Apr-12 03:33N 34°39' E 033°00'0 0.0
2014-Apr-12 02:33N 34°39' E 033°00'0 0.0
2014-Apr-12 01:33N 34°39' E 033°00'0 0.0
2014-Apr-12 00:33N 34°39' E 033°00'0 0.0
2014-Apr-11 23:33N 34°39' E 033°00'0 0.0
2014-Apr-11 22:33N 34°39' E 033°00'0 0.0
2014-Apr-11 21:33N 34°39' E 033°00'0 0.0
2014-Apr-11 20:33N 34°39' E 033°00'0 0.0
2014-Apr-11 19:33N 34°39' E 033°00'0 0.0
2014-Apr-11 18:33N 34°39' E 033°00'0 0.0
2014-Apr-11 17:33N 34°39' E 033°00'0 0.0
2014-Apr-11 16:33N 34°39' E 033°00'0 0.0
2014-Apr-11 15:33N 34°39' E 033°00'0 0.0
2014-Apr-11 14:33N 34°39' E 033°00'0 0.0
2014-Apr-11 13:33N 34°39' E 033°00'0 0.0
2014-Apr-11 12:33N 34°39' E 033°00'0 0.0
2014-Apr-11 11:33N 34°39' E 033°00'0 0.0
2014-Apr-11 10:33N 34°39' E 033°00'0 0.0
2014-Apr-11 09:33N 34°39' E 033°00'0 0.0
2014-Apr-11 08:33N 34°39' E 033°00'0 0.0
2014-Apr-11 07:33N 34°39' E 033°00'0 0.0
2014-Apr-11 06:33N 34°39' E 033°00'0 0.0
2014-Apr-11 05:33N 34°39' E 033°00'0 0.0
2014-Apr-11 04:33N 34°39' E 033°00'0 0.0
2014-Apr-11 03:33N 34°39' E 033°00'0 0.0
2014-Apr-11 02:33N 34°39' E 033°00'0 0.0
2014-Apr-11 01:33N 34°39' E 033°00'0 0.0
2014-Apr-11 00:33N 34°39' E 033°00'0 0.0
2014-Apr-10 23:33N 34°39' E 033°00'0 0.0
2014-Apr-10 22:33N 34°39' E 033°00'0 0.0
2014-Apr-10 21:33N 34°39' E 033°00'0 0.0
2014-Apr-10 20:33N 34°39' E 033°00'0 0.0
2014-Apr-10 19:33N 34°39' E 033°00'0 0.0
2014-Apr-10 18:33N 34°39' E 033°00'0 0.0
2014-Apr-10 17:33N 34°39' E 033°00'0 0.0
2014-Apr-10 16:33N 34°39' E 033°00'0 0.0
2014-Apr-10 15:33N 34°39' E 033°00'0 0.0
2014-Apr-10 14:33N 34°39' E 033°00'0 0.0
2014-Apr-10 13:33N 34°39' E 033°00'0 0.0
2014-Apr-10 12:33N 34°39' E 033°00'0 0.0
2014-Apr-10 11:17N 34°39' E 033°00'0 0.0
2014-Apr-10 10:33N 34°39' E 033°00'0 0.0
2014-Apr-10 09:33N 34°39' E 033°00'0 0.0
2014-Apr-10 08:33N 34°39' E 033°00'0 0.0
2014-Apr-10 07:33N 34°39' E 033°00'0 0.0
2014-Apr-10 06:33N 34°39' E 033°00'3 3.5
2014-Apr-10 05:33N 34°40' E 033°04'0 0.0
2014-Apr-10 04:33N 34°40' E 033°04'0 0.0
2014-Apr-10 03:33N 34°40' E 033°04'0 0.0
2014-Apr-10 02:33N 34°40' E 033°04'0 0.0
2014-Apr-10 01:33N 34°40' E 033°04'0 0.0
2014-Apr-10 00:33N 34°40' E 033°04'0 0.0
2014-Apr-09 23:33N 34°40' E 033°04'0 0.0
2014-Apr-09 22:33N 34°40' E 033°04'0 0.0
2014-Apr-09 21:33N 34°40' E 033°04'0 0.0
2014-Apr-09 20:33N 34°40' E 033°04'6 5.8
2014-Apr-09 19:33N 34°40' E 033°11'8 8.0
2014-Apr-09 18:33N 34°41' E 033°21'2 0.1
2014-Apr-08 22:33N 34°40' E 033°19'9 9.0
2014-Apr-08 21:33N 34°40' E 033°08'3 2.7
2014-Apr-08 20:33N 34°41' E 033°04'0 0.0
2014-Apr-08 19:33N 34°41' E 033°04'0 0.1
2014-Apr-08 18:33N 34°41' E 033°05'0 0.2
2014-Apr-08 17:33N 34°41' E 033°04'1 1.3
2014-Apr-08 16:33N 34°40' E 033°05'3 2.6
2014-Apr-08 15:33N 34°37' E 033°05'3 3.4
2014-Apr-08 14:33N 34°34' E 033°04'3 3.5
2014-Apr-08 13:33N 34°30' E 033°03'3 3.5
2014-Apr-08 12:33N 34°27' E 033°02'4 3.7
2014-Apr-08 11:33N 34°24' E 033°01'4 4.0
2014-Apr-08 10:33N 34°20' E 032°59'5 3.7
2014-Apr-08 09:09N 34°15' E 032°56'2 3.6
2014-Apr-08 08:29N 34°13' E 032°55'29 3.3
2014-Apr-07 23:30N 33°44' E 032°47'41 2.9
2014-Apr-07 09:23N 33°04' E 032°42'39 3.3
2014-Apr-06 21:24N 32°26' E 032°30'3 3.5
2014-Apr-06 20:33N 32°23' E 032°30'3 3.4
2014-Apr-06 19:33N 32°19' E 032°29'3 3.4
2014-Apr-06 18:33N 32°16' E 032°29'3 3.3
2014-Apr-06 17:33N 32°13' E 032°28'3 3.4
2014-Apr-06 16:33N 32°09' E 032°27'4 3.5
2014-Apr-06 15:33N 32°06' E 032°26'3 3.4
2014-Apr-06 14:33N 32°03' E 032°25'3 3.4
2014-Apr-06 13:33N 31°59' E 032°24'3 3.2
2014-Apr-06 12:33N 31°56' E 032°23'3 3.3
2014-Apr-06 11:33N 31°53' E 032°23'3 3.4
2014-Apr-06 10:33N 31°50' E 032°22'4 3.6
2014-Apr-06 09:33N 31°46' E 032°21'4 3.6
2014-Apr-06 08:33N 31°43' E 032°20'3 3.1
2014-Apr-06 07:33N 31°40' E 032°18'  

Dump ship's entire track history

sailing weather and tide predictions

Pileas I — P3YG9 — position and weather